createdAt,value
2018-07-11T00:01:02.763Z,60468.00
2018-07-11T00:03:42.555Z,60445.65
2018-07-11T00:06:10.935Z,60455.81
2018-07-11T00:08:39.514Z,60464.96
2018-07-11T00:11:08.006Z,60450.73
2018-07-11T00:13:36.230Z,60473.09
2018-07-11T00:16:04.646Z,60441.58
2018-07-11T00:18:32.818Z,60465.97
2018-07-11T00:21:01.406Z,60434.47
2018-07-11T00:23:29.610Z,60462.92
2018-07-11T00:25:57.803Z,60483.25
2018-07-11T00:28:25.981Z,60491.38
2018-07-11T00:30:54.714Z,60456.82
2018-07-11T00:33:23.077Z,60448.70
2018-07-11T00:35:51.290Z,60439.55
2018-07-11T00:38:19.770Z,60474.10
2018-07-11T00:40:48.102Z,60464.96
2018-07-11T00:43:16.345Z,60468.00
2018-07-11T00:45:44.543Z,60452.76
2018-07-11T00:48:12.740Z,60480.20
2018-07-11T00:50:41.512Z,60451.75
2018-07-11T00:53:09.734Z,60437.52
2018-07-11T00:55:38.114Z,60484.26
2018-07-11T00:58:12.590Z,60444.63
2018-07-11T01:00:40.775Z,60458.86
2018-07-11T01:03:09.171Z,60442.60
2018-07-11T01:05:37.402Z,60477.15
2018-07-11T01:08:05.595Z,60462.92
2018-07-11T01:10:33.835Z,60470.04
2018-07-11T01:13:02.039Z,60457.84
2018-07-11T01:15:30.226Z,60481.21
2018-07-11T01:18:04.786Z,60485.28
2018-07-11T01:20:33.254Z,60447.68
2018-07-11T01:23:01.433Z,60442.60
2018-07-11T01:25:29.787Z,60463.94
2018-07-11T01:27:57.983Z,60469.02
2018-07-11T01:30:26.163Z,60470.04
2018-07-11T01:32:54.363Z,60471.05
2018-07-11T01:35:22.574Z,60454.79
2018-07-11T01:37:50.786Z,60497.47
2018-07-11T01:40:18.967Z,60474.10
2018-07-11T01:42:47.139Z,60458.86
2018-07-11T01:45:15.305Z,60477.15
2018-07-11T01:47:43.498Z,60464.96
2018-07-11T01:50:12.063Z,60463.94
2018-07-11T01:52:54.274Z,60473.09
2018-07-11T01:55:22.507Z,60456.82
2018-07-11T01:57:52.746Z,60479.18
2018-07-11T02:00:20.954Z,60470.04
2018-07-11T02:02:49.163Z,60445.65
2018-07-11T02:05:17.399Z,60474.10
2018-07-11T02:07:45.615Z,60468.00
2018-07-11T02:10:13.818Z,60470.04
2018-07-11T02:12:42.831Z,60474.10
2018-07-11T02:15:11.679Z,60458.86
2018-07-11T02:17:40.882Z,60468.00
2018-07-11T02:20:12.007Z,60449.71
2018-07-11T02:22:40.546Z,60464.96
2018-07-11T02:25:09.141Z,60458.86
2018-07-11T02:27:37.511Z,60489.34
2018-07-11T02:30:05.724Z,60483.25
2018-07-11T02:32:34.670Z,60438.53
2018-07-11T02:35:02.871Z,60494.43
2018-07-11T02:37:31.083Z,60463.94
2018-07-11T02:39:59.434Z,60481.21
2018-07-11T02:42:27.650Z,60454.79
2018-07-11T02:44:55.947Z,60478.16
2018-07-11T02:47:29.327Z,60468.00
2018-07-11T02:49:57.555Z,60487.31
2018-07-11T02:52:25.751Z,60465.97
2018-07-11T02:54:53.941Z,60478.16
2018-07-11T02:57:22.135Z,60499.50
2018-07-11T02:59:50.306Z,60485.28
2018-07-11T03:02:18.514Z,60490.36
2018-07-11T03:04:46.718Z,60484.26
2018-07-11T03:07:14.934Z,60464.96
2018-07-11T03:09:43.298Z,60482.23
2018-07-11T03:12:11.502Z,60482.23
2018-07-11T03:14:43.146Z,60491.38
2018-07-11T03:17:11.394Z,60474.10
2018-07-11T03:19:39.563Z,60476.13
2018-07-11T03:22:07.759Z,60485.28
2018-07-11T03:24:35.955Z,60470.04
2018-07-11T03:27:04.166Z,60484.26
2018-07-11T03:29:32.390Z,60458.86
2018-07-11T03:32:00.575Z,60489.34
2018-07-11T03:34:28.766Z,60429.39
2018-07-11T03:36:56.951Z,60483.25
2018-07-11T03:39:25.218Z,60490.36
2018-07-11T03:41:53.417Z,60486.29
2018-07-11T03:44:21.615Z,60518.82
2018-07-11T03:46:49.798Z,60473.09
2018-07-11T03:49:18.000Z,60487.31
2018-07-11T03:51:46.202Z,60468.00
2018-07-11T03:54:14.930Z,60456.82
2018-07-11T03:56:43.110Z,60468.00
2018-07-11T03:59:11.354Z,60462.92
2018-07-11T04:01:39.547Z,60476.13
2018-07-11T04:04:07.730Z,60473.09
2018-07-11T04:06:35.930Z,60461.91
2018-07-11T04:09:04.412Z,60448.70
2018-07-11T04:11:32.583Z,60473.09
2018-07-11T04:14:00.751Z,60469.02
2018-07-11T04:16:28.930Z,60471.05
2018-07-11T04:18:57.243Z,60465.97
2018-07-11T04:21:25.422Z,60470.04
2018-07-11T04:23:53.607Z,60464.96
2018-07-11T04:26:21.811Z,60473.09
2018-07-11T04:28:50.101Z,60429.39
2018-07-11T04:31:18.235Z,60461.91
2018-07-11T04:33:46.435Z,60483.25
2018-07-11T04:36:14.628Z,60482.23
2018-07-11T04:38:42.799Z,60464.96
2018-07-11T04:41:10.971Z,60463.94
2018-07-11T04:43:39.170Z,60470.04
2018-07-11T04:46:07.356Z,60451.75
2018-07-11T04:48:35.886Z,60455.81
2018-07-11T04:51:04.258Z,60480.20
2018-07-11T04:53:32.561Z,60474.10
2018-07-11T04:56:03.116Z,60456.82
2018-07-11T04:58:31.906Z,60494.43
2018-07-11T05:01:00.599Z,60475.12
2018-07-11T05:03:29.183Z,60468.00
2018-07-11T05:05:57.379Z,60457.84
2018-07-11T05:08:26.143Z,60445.65
2018-07-11T05:10:54.411Z,60466.99
2018-07-11T05:13:22.907Z,60446.66
2018-07-11T05:15:51.071Z,60479.18
2018-07-11T05:18:19.271Z,60459.87
2018-07-11T05:20:47.723Z,60461.91
2018-07-11T05:23:16.402Z,60449.71
2018-07-11T05:25:44.893Z,60432.44
2018-07-11T05:28:13.083Z,60439.55
2018-07-11T05:30:41.266Z,60451.75
2018-07-11T05:33:09.455Z,60458.86
2018-07-11T05:35:37.799Z,60437.52
2018-07-11T05:38:05.970Z,60458.86
2018-07-11T05:40:34.154Z,60452.76
2018-07-11T05:43:02.319Z,60451.75
2018-07-11T05:45:30.498Z,60453.78
2018-07-11T05:47:58.775Z,60460.89
2018-07-11T05:50:26.942Z,60438.53
2018-07-11T05:52:55.106Z,60450.73
2018-07-11T05:55:23.271Z,60449.71
2018-07-11T05:57:51.452Z,60456.82
2018-07-11T06:00:19.814Z,60457.84
2018-07-11T06:02:48.211Z,60450.73
2018-07-11T06:05:16.403Z,60431.42
2018-07-11T06:07:44.594Z,60444.63
2018-07-11T06:10:12.782Z,60444.63
2018-07-11T06:12:41.027Z,60441.58
2018-07-11T06:15:09.213Z,60438.53
2018-07-11T06:17:37.478Z,60448.70
2018-07-11T06:20:05.742Z,60427.36
2018-07-11T06:22:34.377Z,60421.26
2018-07-11T06:25:02.768Z,60441.58
2018-07-11T06:27:31.066Z,60439.55
2018-07-11T06:29:59.391Z,60434.47
2018-07-11T06:32:27.569Z,60438.53
2018-07-11T06:34:55.795Z,60436.50
2018-07-11T06:37:24.071Z,60443.61
2018-07-11T06:39:52.511Z,60429.39
2018-07-11T06:42:20.679Z,60410.08
2018-07-11T06:44:48.962Z,60426.34
2018-07-11T06:47:17.184Z,60415.16
2018-07-11T06:49:47.011Z,60436.50
2018-07-11T06:52:15.803Z,60430.40
2018-07-11T06:54:44.007Z,60423.29
2018-07-11T06:57:12.251Z,60414.14
2018-07-11T06:59:40.427Z,60398.90
2018-07-11T07:02:08.598Z,60412.11
2018-07-11T07:04:36.771Z,60407.03
2018-07-11T07:07:04.960Z,60416.18
2018-07-11T07:09:33.138Z,60389.76
2018-07-11T07:12:02.363Z,60400.93
2018-07-11T07:14:30.559Z,60413.13
2018-07-11T07:16:58.738Z,60410.08
2018-07-11T07:19:26.951Z,60422.27
2018-07-11T07:21:55.326Z,60385.69
2018-07-11T07:24:23.526Z,60387.72
2018-07-11T07:26:51.708Z,60412.11
2018-07-11T07:29:20.087Z,60398.90
2018-07-11T07:31:48.255Z,60414.14
2018-07-11T07:34:16.431Z,60411.10
2018-07-11T07:36:44.655Z,60414.14
2018-07-11T07:39:13.054Z,60384.68
2018-07-11T07:41:41.358Z,60396.87
2018-07-11T07:44:10.531Z,60405.00
2018-07-11T07:46:38.746Z,60395.86
2018-07-11T07:49:06.931Z,60394.84
2018-07-11T07:51:35.127Z,60417.20
2018-07-11T07:54:03.318Z,60421.26
2018-07-11T07:56:31.518Z,60422.27
2018-07-11T07:58:59.731Z,60414.14
2018-07-11T08:01:27.954Z,60406.02
2018-07-11T08:03:56.140Z,60416.18
2018-07-11T08:06:24.350Z,60387.72
2018-07-11T08:08:52.530Z,60408.05
2018-07-11T08:11:20.743Z,60391.79
2018-07-11T08:13:48.902Z,60402.97
2018-07-11T08:16:23.363Z,60409.07
2018-07-11T08:18:51.531Z,60410.08
2018-07-11T08:21:19.914Z,60385.69
2018-07-11T08:23:59.248Z,60390.77
2018-07-11T08:27:40.841Z,60375.53
2018-07-11T08:30:31.339Z,60375.53
2018-07-11T08:35:13.267Z,60381.63
2018-07-11T08:37:50.106Z,60392.80
2018-07-11T08:43:35.387Z,60386.71
2018-07-11T08:46:15.246Z,60377.56
2018-07-11T08:48:54.514Z,60418.21
2018-07-11T08:52:04.594Z,60375.53
2018-07-11T08:54:43.754Z,60374.52
2018-07-11T09:01:32.989Z,60375.53
2018-07-11T09:06:19.155Z,60361.30
2018-07-11T09:09:10.515Z,60383.66
2018-07-11T09:11:53.418Z,60355.21
2018-07-11T09:14:37.055Z,60360.29
2018-07-11T09:20:22.426Z,60335.90
2018-07-11T09:25:14.075Z,60330.82
2018-07-11T09:27:42.246Z,60323.71
2018-07-11T09:30:10.426Z,60332.85
2018-07-11T09:32:38.603Z,60348.09
2018-07-11T09:35:06.794Z,60318.62
2018-07-11T09:37:34.981Z,60334.88
2018-07-11T09:40:03.155Z,60321.67
2018-07-11T09:42:31.336Z,60339.96
2018-07-11T09:44:59.736Z,60347.08
2018-07-11T09:47:29.009Z,60318.62
2018-07-11T09:49:57.622Z,60331.84
2018-07-11T09:52:25.843Z,60330.82
2018-07-11T09:54:54.272Z,60335.90
2018-07-11T09:57:22.687Z,60320.66
2018-07-11T09:59:50.890Z,60298.30
2018-07-11T10:02:19.114Z,60332.85
2018-07-11T10:04:47.409Z,60299.32
2018-07-11T10:07:15.611Z,60314.56
2018-07-11T10:09:43.794Z,60315.57
2018-07-11T10:12:11.988Z,60327.77
2018-07-11T10:14:40.154Z,60288.14
2018-07-11T10:17:08.370Z,60293.22
2018-07-11T10:19:36.566Z,60315.57
2018-07-11T10:22:04.758Z,60301.35
2018-07-11T10:24:32.962Z,60310.50
2018-07-11T10:27:01.172Z,60327.77
2018-07-11T10:29:29.351Z,60262.74
2018-07-11T10:31:57.545Z,60271.88
2018-07-11T10:34:25.722Z,60282.04
2018-07-11T10:36:53.903Z,60260.71
2018-07-11T10:39:22.082Z,60261.72
2018-07-11T10:41:50.287Z,60295.25
2018-07-11T10:44:18.467Z,60290.17
2018-07-11T10:46:46.644Z,60273.91
2018-07-11T10:49:14.842Z,60243.43
2018-07-11T10:51:43.007Z,60258.67
2018-07-11T10:54:11.188Z,60251.56
2018-07-11T10:56:39.374Z,60248.51
2018-07-11T10:59:07.558Z,60267.82
2018-07-11T11:01:35.832Z,60266.80
2018-07-11T11:04:03.943Z,60252.57
2018-07-11T11:06:32.098Z,60252.57
2018-07-11T11:09:00.308Z,60261.72
2018-07-11T11:11:28.482Z,60259.69
2018-07-11T11:13:56.712Z,60260.71
2018-07-11T11:16:24.906Z,60256.64
2018-07-11T11:18:53.083Z,60241.40
2018-07-11T11:21:21.288Z,60252.57
2018-07-11T11:23:49.467Z,60266.80
2018-07-11T11:26:17.655Z,60246.48
2018-07-11T11:28:45.840Z,60255.63
2018-07-11T11:31:14.011Z,60253.59
2018-07-11T11:33:42.194Z,60247.49
2018-07-11T11:36:10.386Z,60267.82
2018-07-11T11:38:38.563Z,60265.79
2018-07-11T11:41:06.902Z,60254.61
2018-07-11T11:43:35.098Z,60271.88
2018-07-11T11:46:03.287Z,60262.74
2018-07-11T11:48:31.479Z,60251.56
2018-07-11T11:50:59.659Z,60256.64
2018-07-11T11:53:27.836Z,60257.66
2018-07-11T11:55:56.023Z,60241.40
2018-07-11T11:58:24.190Z,60250.54
2018-07-11T12:00:52.371Z,60245.46
2018-07-11T12:03:20.543Z,60253.59
2018-07-11T12:05:48.723Z,60246.48
2018-07-11T12:08:16.918Z,60256.64
2018-07-11T12:10:45.120Z,60258.67
2018-07-11T12:13:13.335Z,60250.54
2018-07-11T12:15:41.495Z,60249.53
2018-07-11T12:18:09.666Z,60266.80
2018-07-11T12:20:37.834Z,60252.57
2018-07-11T12:23:06.013Z,60261.72
2018-07-11T12:25:34.463Z,60261.72
2018-07-11T12:28:02.651Z,60255.63
2018-07-11T12:30:30.847Z,60256.64
2018-07-11T12:32:59.042Z,60256.64
2018-07-11T12:35:27.243Z,60253.59
2018-07-11T12:37:55.452Z,60278.99
2018-07-11T12:40:23.719Z,60245.46
2018-07-11T12:42:51.938Z,60259.69
2018-07-11T12:45:20.142Z,60260.71
2018-07-11T12:47:54.006Z,60259.69
2018-07-11T12:50:22.224Z,60229.20
2018-07-11T12:52:50.420Z,60244.45
2018-07-11T12:55:18.714Z,60241.40
2018-07-11T12:57:46.924Z,60230.22
2018-07-11T13:00:15.131Z,60228.19
2018-07-11T13:02:43.390Z,60236.32
2018-07-11T13:05:11.803Z,60249.53
2018-07-11T13:07:40.087Z,60240.38
2018-07-11T13:10:08.270Z,60229.20
2018-07-11T13:12:36.690Z,60260.71
2018-07-11T13:15:05.415Z,60249.53
2018-07-11T13:17:33.591Z,60257.66
2018-07-11T13:20:01.763Z,60246.48
2018-07-11T13:22:30.020Z,60259.69
2018-07-11T13:24:58.222Z,60261.72
2018-07-11T13:27:26.588Z,60259.69
2018-07-11T13:29:54.770Z,60262.74
2018-07-11T13:32:26.598Z,60252.57
2018-07-11T13:34:55.019Z,60244.45
2018-07-11T13:37:23.259Z,60248.51
2018-07-11T13:39:51.438Z,60284.07
2018-07-11T13:42:19.625Z,60266.80
2018-07-11T13:44:47.819Z,60267.82
2018-07-11T13:47:21.351Z,60285.09
2018-07-11T13:49:49.546Z,60263.75
2018-07-11T13:52:17.984Z,60275.95
2018-07-11T13:54:46.170Z,60291.19
2018-07-11T13:57:14.363Z,60268.83
2018-07-11T13:59:42.674Z,60270.87
2018-07-11T14:02:10.886Z,60276.96
2018-07-11T14:04:39.070Z,60268.83
2018-07-11T14:07:07.540Z,60265.79
2018-07-11T14:09:35.841Z,60264.77
2018-07-11T14:12:04.259Z,60250.54
2018-07-11T14:14:32.843Z,60256.64
2018-07-11T14:17:01.220Z,60265.79
2018-07-11T14:19:29.584Z,60269.85
2018-07-11T14:21:57.797Z,60268.83
2018-07-11T14:24:27.707Z,60278.99
2018-07-11T14:26:55.965Z,60262.74
2018-07-11T14:29:28.134Z,60274.93
2018-07-11T14:31:57.520Z,60270.87
2018-07-11T14:34:25.844Z,60268.83
2018-07-11T14:36:54.082Z,60285.09
2018-07-11T14:39:22.275Z,60291.19
2018-07-11T14:41:50.682Z,60268.83
2018-07-11T14:44:19.087Z,60273.91
2018-07-11T14:46:47.273Z,60275.95
2018-07-11T14:49:16.366Z,60307.45
2018-07-11T14:51:44.539Z,60286.11
2018-07-11T14:54:13.083Z,60285.09
2018-07-11T14:56:41.379Z,60264.77
2018-07-11T14:59:09.572Z,60281.03
2018-07-11T15:01:37.755Z,60292.21
2018-07-11T15:04:06.190Z,60321.67
2018-07-11T15:06:34.548Z,60273.91
2018-07-11T15:09:02.926Z,60290.17
2018-07-11T15:11:30.950Z,60319.64
2018-07-11T15:13:59.146Z,60322.69
2018-07-11T15:16:27.834Z,60319.64
2018-07-11T15:18:56.026Z,60317.61
2018-07-11T15:21:24.432Z,60338.95
2018-07-11T15:23:52.830Z,60303.38
2018-07-11T15:26:21.189Z,60339.96
2018-07-11T15:28:49.567Z,60327.77
2018-07-11T15:31:17.980Z,60328.79
2018-07-11T15:33:46.265Z,60360.29
2018-07-11T15:36:14.946Z,60373.50
2018-07-11T15:38:43.214Z,60346.06
2018-07-11T15:41:11.467Z,60336.91
2018-07-11T15:43:40.662Z,60330.82
2018-07-11T15:46:08.847Z,60345.04
2018-07-11T15:48:37.129Z,60317.61
2018-07-11T15:51:05.725Z,60335.90
2018-07-11T15:53:34.354Z,60311.51
2018-07-11T15:56:02.592Z,60318.62
2018-07-11T15:58:31.764Z,60320.66
2018-07-11T16:01:04.890Z,60342.00
2018-07-11T16:03:35.582Z,60342.00
2018-07-11T16:06:03.799Z,60330.82
2018-07-11T16:08:31.991Z,60320.66
2018-07-11T16:11:03.462Z,60344.03
2018-07-11T16:13:31.741Z,60329.80
2018-07-11T16:15:59.955Z,60345.04
2018-07-11T16:18:28.744Z,60344.03
2018-07-11T16:20:56.926Z,60334.88
2018-07-11T16:23:25.118Z,60337.93
2018-07-11T16:25:53.326Z,60344.03
2018-07-11T16:28:21.531Z,60325.74
2018-07-11T16:30:49.702Z,60310.50
2018-07-11T16:33:17.930Z,60347.08
2018-07-11T16:35:46.134Z,60332.85
2018-07-11T16:38:14.326Z,60328.79
2018-07-11T16:40:42.494Z,60340.98
2018-07-11T16:43:10.894Z,60332.85
2018-07-11T16:45:39.083Z,60336.91
2018-07-11T16:48:07.286Z,60338.95
2018-07-11T16:50:36.358Z,60343.01
2018-07-11T16:53:05.061Z,60366.39
2018-07-11T16:55:35.318Z,60339.96
2018-07-11T16:58:04.503Z,60339.96
2018-07-11T17:00:34.018Z,60340.98
2018-07-11T17:03:07.166Z,60337.93
2018-07-11T17:05:46.555Z,60350.12
2018-07-11T17:08:18.292Z,60340.98
2018-07-11T17:10:46.866Z,60340.98
2018-07-11T17:13:21.317Z,60342.00
2018-07-11T17:15:51.019Z,60340.98
2018-07-11T17:18:32.261Z,60360.29
2018-07-11T17:21:06.371Z,60346.06
2018-07-11T17:23:36.537Z,60343.01
2018-07-11T17:26:04.734Z,60350.12
2018-07-11T17:28:33.842Z,60342.00
2018-07-11T17:31:02.402Z,60366.39
2018-07-11T17:33:30.859Z,60350.12
2018-07-11T17:35:59.103Z,60335.90
2018-07-11T17:38:29.002Z,60353.18
2018-07-11T17:40:57.494Z,60386.71
2018-07-11T17:43:40.453Z,60335.90
2018-07-11T17:46:09.600Z,60348.09
2018-07-11T17:48:51.818Z,60346.06
2018-07-11T17:51:30.954Z,60361.30
2018-07-11T17:53:59.343Z,60359.27
2018-07-11T17:56:37.407Z,60364.35
2018-07-11T17:59:05.717Z,60374.52
2018-07-11T18:01:37.451Z,60365.37
2018-07-11T18:04:17.375Z,60365.37
2018-07-11T18:06:59.868Z,60365.37
2018-07-11T18:09:31.734Z,60371.46
2018-07-11T18:12:09.047Z,60372.48
2018-07-11T18:14:49.043Z,60366.39
2018-07-11T18:19:31.610Z,60364.35
2018-07-11T18:22:14.334Z,60364.35
2018-07-11T18:24:49.843Z,60340.98
2018-07-11T18:27:31.885Z,60375.53
2018-07-11T18:32:18.892Z,60363.34
2018-07-11T18:34:57.443Z,60360.29
2018-07-11T18:38:02.454Z,60354.19
2018-07-11T18:40:32.974Z,60367.40
2018-07-11T18:43:14.261Z,60377.56
2018-07-11T18:45:52.227Z,60387.72
2018-07-11T18:48:28.519Z,60359.27
2018-07-11T18:51:07.935Z,60370.45
2018-07-11T18:53:49.576Z,60356.22
2018-07-11T18:56:42.554Z,60390.77
2018-07-11T18:59:22.194Z,60372.48
2018-07-11T19:02:02.257Z,60379.59
2018-07-11T19:04:36.310Z,60376.55
2018-07-11T19:07:12.017Z,60371.46
2018-07-11T19:09:51.762Z,60383.66
2018-07-11T19:12:32.432Z,60373.50
2018-07-11T19:15:05.298Z,60358.25
2018-07-11T19:19:43.514Z,60371.46
2018-07-11T19:22:48.150Z,60376.55
2018-07-11T19:25:30.259Z,60366.39
2018-07-11T19:28:03.858Z,60366.39
2018-07-11T19:31:52.103Z,60382.64
2018-07-11T19:34:27.781Z,60369.43
2018-07-11T19:37:03.321Z,60385.69
2018-07-11T19:40:41.128Z,60358.25
2018-07-11T19:43:17.970Z,60351.14
2018-07-11T19:46:00.962Z,60359.27
2018-07-11T19:49:41.795Z,60391.79
2018-07-11T19:52:15.067Z,60390.77
2018-07-11T19:54:52.630Z,60369.43
2018-07-11T19:57:20.834Z,60385.69
2018-07-11T19:59:49.014Z,60384.68
2018-07-11T20:02:17.207Z,60366.39
2018-07-11T20:04:45.411Z,60393.82
2018-07-11T20:07:13.642Z,60373.50
2018-07-11T20:09:41.826Z,60394.84
2018-07-11T20:12:10.035Z,60386.71
2018-07-11T20:14:38.203Z,60361.30
2018-07-11T20:17:12.809Z,60385.69
2018-07-11T20:19:41.002Z,60366.39
2018-07-11T20:22:09.200Z,60363.34
2018-07-11T20:24:37.382Z,60361.30
2018-07-11T20:27:05.542Z,60381.63
2018-07-11T20:29:33.938Z,60376.55
2018-07-11T20:32:02.142Z,60365.37
2018-07-11T20:34:30.330Z,60356.22
2018-07-11T20:36:58.519Z,60393.82
2018-07-11T20:39:26.716Z,60380.61
2018-07-11T20:41:54.921Z,60365.37
2018-07-11T20:44:23.162Z,60377.56
2018-07-11T20:46:51.367Z,60373.50
2018-07-11T20:49:24.797Z,60387.72
2018-07-11T20:51:52.922Z,60367.40
2018-07-11T20:54:21.115Z,60370.45
2018-07-11T20:56:49.279Z,60375.53
2018-07-11T20:59:29.087Z,60386.71
2018-07-11T21:03:11.546Z,60378.58
2018-07-11T21:05:57.480Z,60392.80
2018-07-11T21:08:42.022Z,60370.45
2018-07-11T21:11:18.818Z,60376.55
2018-07-11T21:16:00.716Z,60392.80
2018-07-11T21:18:40.176Z,60375.53
2018-07-11T21:21:08.335Z,60383.66
2018-07-11T21:23:36.558Z,60411.10
2018-07-11T21:26:04.751Z,60384.68
2018-07-11T21:28:32.942Z,60381.63
2018-07-11T21:31:01.130Z,60398.90
2018-07-11T21:33:29.373Z,60393.82
2018-07-11T21:35:57.538Z,60379.59
2018-07-11T21:38:25.730Z,60376.55
2018-07-11T21:40:53.911Z,60383.66
2018-07-11T21:43:22.129Z,60391.79
2018-07-11T21:45:50.317Z,60395.86
2018-07-11T21:48:18.494Z,60395.86
2018-07-11T21:50:46.946Z,60361.30
2018-07-11T21:53:15.119Z,60361.30
2018-07-11T21:55:43.340Z,60399.92
2018-07-11T21:58:11.566Z,60399.92
2018-07-11T22:00:40.873Z,60395.86
2018-07-11T22:03:10.066Z,60387.72
2018-07-11T22:05:38.350Z,60384.68
2018-07-11T22:08:08.559Z,60396.87
2018-07-11T22:10:38.283Z,60380.61
2018-07-11T22:13:06.919Z,60375.53
2018-07-11T22:15:35.315Z,60390.77
2018-07-11T22:18:15.196Z,60390.77
2018-07-11T22:20:42.291Z,60413.13
2018-07-11T22:23:09.410Z,60397.89
2018-07-11T22:25:36.510Z,60418.21
2018-07-11T22:28:03.619Z,60408.05
2018-07-11T22:30:30.735Z,60422.27
2018-07-11T22:32:57.851Z,60376.55
2018-07-11T22:35:24.950Z,60394.84
2018-07-11T22:37:52.062Z,60396.87
2018-07-11T22:40:19.167Z,60416.18
2018-07-11T22:42:46.316Z,60391.79
2018-07-11T22:45:13.383Z,60410.08
2018-07-11T22:47:40.488Z,60396.87
2018-07-11T22:50:07.590Z,60407.03
2018-07-11T22:52:34.725Z,60392.80
2018-07-11T22:55:01.811Z,60403.98
2018-07-11T22:57:28.903Z,60373.50
2018-07-11T22:59:56.022Z,60413.13
2018-07-11T23:02:23.131Z,60402.97
2018-07-11T23:04:50.231Z,60386.71
2018-07-11T23:07:17.331Z,60396.87
2018-07-11T23:09:44.428Z,60402.97
2018-07-11T23:12:11.530Z,60416.18
2018-07-11T23:14:38.639Z,60379.59
2018-07-11T23:17:05.743Z,60381.63
2018-07-11T23:19:32.848Z,60406.02
2018-07-11T23:21:59.992Z,60410.08
2018-07-11T23:24:27.095Z,60411.10
2018-07-11T23:26:54.371Z,60396.87
2018-07-11T23:29:21.618Z,60399.92
2018-07-11T23:31:48.726Z,60394.84
2018-07-11T23:34:15.831Z,60408.05
2018-07-11T23:36:42.980Z,60394.84
2018-07-11T23:39:11.039Z,60387.72
2018-07-11T23:41:38.155Z,60415.16
2018-07-11T23:44:05.259Z,60394.84
2018-07-11T23:46:32.370Z,60417.20
2018-07-11T23:48:59.484Z,60385.69
2018-07-11T23:51:26.587Z,60385.69
2018-07-11T23:53:53.695Z,60409.07
2018-07-11T23:56:20.799Z,60415.16
2018-07-11T23:58:48.149Z,60398.90
